International Virtual Aviation Organisation

Eastern Europe and Northern Asia MCD

 

Карточка аэропорта UUWW

Внимание!
Информация на этой странице в стадии наполнения.
Если вы не увидели какой-то информации, или заметили неточность - пожалуйста сообщите нам!
Спасибо!
Команда RU-STAFF
Название аэропортаВнуково
Название аэропорта (англ.)Vnukovo
Превышение686 ft. (209.1 m.)
Координаты55°35.952', 37°16.386'
Высота перехода10000 ft
Эшелон переходаFL110
Коды ответчика2101-2117
Зона ОрВДМосква РПИ (UUWV)
Данные METARUUWW 101100Z 18005MPS 140V210 CAVOK 10/M04 Q1024 R24/000070 NOSIG
Проноз погоды (TAF)UUWW 100758Z 1009/1109 18008G13MPS 9999 SCT030 TX12/1109Z TN00/1102Z BECMG 1014/1016 18003G08MPS
NOTAMshow/hide NOTAM
AWOS   TABLE

Информация о ВПП

ВПП Длина ВПП (м.) Покрытие Курс ВПП Частота ILS
013060Асфальтобетон13111.7
193060Асфальтобетон193111.5
063500Цементобетон58108.9
243500Цементобетон238111.1

Диспетчерские позиции

Позывной Наименование органа УВД Частота
UUWW_APPВнуково-Прилет123.400
UUWW_DELВнуково-Деливери131.800
UUWW_DELВнуково-Деливери129.700
UUWW_DEPВнуково-Вылет135.175
UUWW_D_APPВнуково-Прилет126.000
UUWW_GNDВнуково-Руление121.700
UUWW_GNDВнуково-Руление120.450
UUWW_TWRВнуково-Вышка118.300



Спутниковое изображение